• Join FlightAware (Why Join?)
  • Login
  • US Flag 
01:53AM EDT


 

Airport Tracker/Info


-or-


 

Live Flight TrackerFlight Track Log ✈ CLH1011 ✈ 29-Jul-2012 ✈ EBBR / BRU - EDDF / FRA

Flight Track Log - Related Links

Times and Time Zones

All times are in EDT time to prevent confusion due to time zone crossing. See the CLH1011 flight status page for this flight to view local times or setup timezone preferences in your user account.

Time Position Orientation Groundspeed Altitude Reporting Facility
EDT Latitude Longitude Course Direction KTS MPH feet Rate Location/Type
07:43AM 50.8769 4.6098 107° East  Level Estimated
07:44AM 50.8523 4.7351 107° East  Level Estimated
07:45AM 50.8276 4.8603 107° East  Level Estimated
07:46AM 50.8027 4.9853 108° East  Level Estimated
07:47AM 50.7614 5.1912 108° East  Level Estimated
07:48AM 50.7197 5.3968 108° East  Level Estimated
07:49AM 50.6777 5.6021 108° East  Level Estimated
07:50AM 50.6353 5.8069 108° East  Level Estimated
07:51AM 50.5925 6.0114 108° East  Level Estimated
07:52AM 50.5494 6.2155 108° East  Level Estimated
07:53AM 50.5277 6.3175 109° East  Level Estimated
07:54AM 50.5059 6.4193 109° East  Level Estimated
07:55AM 50.4841 6.5210 109° East  Level Estimated
07:56AM 50.4621 6.6227 109° East  Level Estimated
07:57AM 50.4400 6.7242 109° East  Level Estimated
07:58AM 50.4179 6.8256 109° East  Level Estimated
07:59AM 50.3957 6.9270 109° East  Level Estimated
08:00AM 50.3734 7.0283 109° East  Level Estimated
08:01AM 50.3510 7.1294 109° East  Level Estimated
08:02AM 50.3285 7.2305 109° East  Level Estimated
08:03AM 50.3059 7.3314 109° East  Level Estimated
08:04AM 50.2832 7.4323 109° East  Level Estimated
08:05AM 50.2605 7.5331 109° East  Level Estimated
08:06AM 50.2377 7.6338 110° East  Level Estimated
08:07AM 50.2099 7.7557 110° East  Level Estimated
08:08AM 50.1819 7.8775 110° East  Level Estimated
08:09AM 50.1539 7.9991 110° East  Level Estimated
08:10AM 50.1257 8.1206 110° East  Level Estimated
08:11AM 50.0974 8.2419 110° East  Level Estimated
08:12AM 50.0690 8.3631 110° East  Level Estimated
08:13AM 50.0404 8.4842 110° East  Level Estimated
08:14AM 50.0117 8.6051 290° West  Level Estimated
08:15AM 50.0404 8.4842 110° East  Level Estimated
08:16AM 50.0117 8.6051 290° West  Level Estimated
08:17AM 50.0404 8.4842 110° East  Level Estimated
08:18AM 50.0117 8.6051 290° West  Level Estimated
08:19AM 50.0404 8.4842 110° East  Level Estimated
08:20AM 50.0117 8.6051 290° West  Level Estimated
08:21AM 50.0404 8.4842 110° East  Level Estimated
08:22AM 50.0117 8.6051 290° West  Level Estimated
08:23AM 50.0404 8.4842 110° East  Level Estimated
08:24AM 50.0117 8.6051 290° West  Level Estimated
08:25AM 50.0404 8.4842 110° East  Level Estimated
08:26AM 50.0117 8.6051 110° East  Level Estimated